Terminal Aerodrome Forecast
Issued by NWS

Home | Current Version | Previous Version | Text Only | Print | Product List | Glossary On
Versions: 1 2 3 4 5 6 7 8 9 10 11 12 13 14 15
000
FTUS43 KSGF 300731 AAA
TAFBBG
TAF AMD
KBBG 300731Z 3008/3106 00000KT 2SM BR SCT120
     FM301400 12005KT P6SM SCT050 SCT250
     FM310000 00000KT P6SM SCT060 SCT120=

USA.gov is the U.S. government's official web portal to all federal, state and local government web resources and services.